Time;durP1;ratioP1;P1;durP2;ratioP2;P2;SDS_P1;SDS_P2;PMS_P1;PMS_P2;Temp;Humidity;BMP_temperature;BMP_pressure;BME280_temperature;BME280_humidity;BME280_pressure;Samples;Min_cycle;Max_cycle;Signal;HPM_P1;HPM_P2
2022/12/03 00:01:13;;;;;;;88.03;38.45;;;;;;;;;;4969038;28;20122;-75
2022/12/03 00:03:42;;;;;;;89.50;37.75;;;;;;;;;;4960740;28;20059;-75
2022/12/03 00:06:08;;;;;;;85.15;36.72;;;;;;;;;;4961532;28;20122;-75
2022/12/03 00:08:34;;;;;;;77.00;35.00;;;;;;;;;;4968602;28;20105;-75
2022/12/03 00:11:00;;;;;;;78.57;34.08;;;;;;;;;;4957916;28;20055;-75
2022/12/03 00:13:26;;;;;;;74.43;33.40;;;;;;;;;;4969163;28;20150;-75
2022/12/03 00:15:52;;;;;;;78.30;34.42;;;;;;;;;;4963048;28;20069;-76
2022/12/03 00:18:18;;;;;;;78.97;34.28;;;;;;;;;;4968211;28;20035;-75
2022/12/03 00:20:44;;;;;;;84.38;36.55;;;;;;;;;;4958436;28;20102;-76
2022/12/03 00:23:10;;;;;;;79.38;35.15;;;;;;;;;;4970251;28;20031;-74
2022/12/03 00:25:38;;;;;;;80.97;35.15;;;;;;;;;;4960690;28;20034;-74
2022/12/03 00:28:04;;;;;;;79.25;34.45;;;;;;;;;;4961749;28;20027;-76
2022/12/03 00:30:30;;;;;;;79.97;34.15;;;;;;;;;;4966581;28;20039;-74
2022/12/03 00:32:56;;;;;;;80.88;34.78;;;;;;;;;;4957530;28;20030;-75
2022/12/03 00:35:22;;;;;;;79.00;34.42;;;;;;;;;;4968861;28;20419;-75
2022/12/03 00:37:48;;;;;;;71.38;34.28;;;;;;;;;;4961850;28;20081;-76
2022/12/03 00:40:16;;;;;;;75.28;34.45;;;;;;;;;;4962392;28;20478;-76
2022/12/03 00:42:42;;;;;;;82.47;34.10;;;;;;;;;;4968881;28;20050;-75
2022/12/03 00:45:09;;;;;;;78.35;35.00;;;;;;;;;;4956073;28;20026;-76
2022/12/03 00:47:35;;;;;;;71.22;34.17;;;;;;;;;;4965264;28;20040;-74
2022/12/03 00:50:01;;;;;;;78.22;35.15;;;;;;;;;;4963473;28;20027;-74
2022/12/03 00:52:27;;;;;;;74.65;34.10;;;;;;;;;;4958922;28;20393;-74
2022/12/03 00:54:53;;;;;;;75.32;33.20;;;;;;;;;;4970013;28;20031;-74
2022/12/03 00:57:19;;;;;;;75.50;33.17;;;;;;;;;;4956533;28;20019;-75
2022/12/03 00:59:45;;;;;;;71.20;32.63;;;;;;;;;;4964542;28;20031;-74
2022/12/03 01:02:11;;;;;;;84.30;36.08;;;;;;;;;;4964593;28;20106;-75
2022/12/03 01:04:40;;;;;;;72.93;33.10;;;;;;;;;;4957184;28;20027;-74
2022/12/03 01:07:08;;;;;;;74.05;33.00;;;;;;;;;;4969395;28;20022;-76
2022/12/03 01:09:34;;;;;;;82.15;34.92;;;;;;;;;;4958450;28;20026;-74
2022/12/03 01:12:00;;;;;;;70.68;31.85;;;;;;;;;;4962282;28;20027;-74
2022/12/03 01:14:27;;;;;;;73.93;35.45;;;;;;;;;;4965254;28;20041;-74
2022/12/03 01:16:53;;;;;;;74.88;34.33;;;;;;;;;;4954911;28;20019;-74
2022/12/03 01:19:23;;;;;;;77.35;34.85;;;;;;;;;;4954712;28;20030;-76
2022/12/03 01:21:49;;;;;;;75.28;34.25;;;;;;;;;;4964858;28;20042;-75
2022/12/03 01:24:16;;;;;;;76.57;34.03;;;;;;;;;;4963804;28;20105;-75
2022/12/03 01:26:42;;;;;;;75.97;34.00;;;;;;;;;;4957666;28;20023;-74
2022/12/03 01:29:08;;;;;;;77.80;34.58;;;;;;;;;;4967448;28;20117;-75
2022/12/03 01:34:18;;;;;;;67.05;32.30;;;;;;;;;;4961389;28;20042;-75
2022/12/03 01:36:44;;;;;;;75.28;33.85;;;;;;;;;;4969234;28;20027;-74
2022/12/03 01:39:11;;;;;;;71.05;31.60;;;;;;;;;;4957114;28;20069;-75
2022/12/03 01:41:37;;;;;;;68.28;32.45;;;;;;;;;;4966685;28;20475;-75
2022/12/03 01:44:06;;;;;;;73.32;34.65;;;;;;;;;;4962568;28;20114;-75
2022/12/03 01:46:40;;;;;;;73.03;33.15;;;;;;;;;;4959853;28;20142;-75
2022/12/03 01:49:08;;;;;;;69.47;32.92;;;;;;;;;;4969726;28;20027;-75
2022/12/03 01:51:34;;;;;;;74.05;33.35;;;;;;;;;;4958847;28;20052;-75
2022/12/03 01:54:01;;;;;;;74.65;34.83;;;;;;;;;;4964408;28;20033;-75
2022/12/03 01:56:27;;;;;;;73.28;32.72;;;;;;;;;;4966461;28;20049;-75
2022/12/03 01:58:53;;;;;;;76.80;34.17;;;;;;;;;;4955972;28;20036;-74
2022/12/03 02:01:19;;;;;;;78.60;35.00;;;;;;;;;;4968523;28;20066;-75
2022/12/03 02:03:45;;;;;;;78.65;35.17;;;;;;;;;;4960861;28;20032;-74
2022/12/03 02:06:16;;;;;;;79.53;35.72;;;;;;;;;;4961707;28;20050;-75
2022/12/03 02:08:42;;;;;;;82.32;35.85;;;;;;;;;;4968324;28;20405;-74
2022/12/03 02:11:26;;;;;;;77.18;34.80;;;;;;;;;;4956396;28;20035;-75
2022/12/03 02:13:55;;;;;;;87.03;35.13;;;;;;;;;;4962725;28;20051;-75
2022/12/03 02:16:21;;;;;;;83.55;35.17;;;;;;;;;;4962360;28;20034;-75
2022/12/03 02:18:47;;;;;;;87.65;36.78;;;;;;;;;;4968349;28;20038;-75
2022/12/03 02:21:22;;;;;;;91.53;36.53;;;;;;;;;;4956154;28;20069;-75
2022/12/03 02:23:57;;;;;;;91.35;36.30;;;;;;;;;;4962975;28;20035;-74
2022/12/03 02:26:23;;;;;;;87.82;37.47;;;;;;;;;;4965336;28;20382;-75
2022/12/03 02:28:49;;;;;;;83.32;36.15;;;;;;;;;;4956039;28;20043;-74
2022/12/03 02:31:15;;;;;;;81.18;34.83;;;;;;;;;;4971921;28;20034;-75
2022/12/03 02:33:41;;;;;;;80.32;35.10;;;;;;;;;;4962928;28;20031;-75
2022/12/03 02:36:07;;;;;;;83.43;35.65;;;;;;;;;;4964761;28;20038;-76
2022/12/03 02:38:34;;;;;;;87.85;36.28;;;;;;;;;;4970511;28;20037;-74
2022/12/03 02:41:03;;;;;;;82.65;36.08;;;;;;;;;;4960274;28;20034;-74
2022/12/03 02:43:29;;;;;;;74.72;34.05;;;;;;;;;;4969861;28;20035;-74
2022/12/03 02:45:56;;;;;;;80.88;35.25;;;;;;;;;;4963900;28;20065;-74
2022/12/03 02:48:27;;;;;;;77.57;35.72;;;;;;;;;;4961333;28;20122;-73
2022/12/03 02:50:54;;;;;;;72.38;32.90;;;;;;;;;;4970819;28;20393;-73
2022/12/03 02:53:22;;;;;;;74.68;32.95;;;;;;;;;;4960407;28;20074;-74
2022/12/03 02:55:49;;;;;;;79.68;35.38;;;;;;;;;;4967745;28;20031;-74
2022/12/03 02:58:15;;;;;;;79.25;35.40;;;;;;;;;;4965755;28;20089;-73
2022/12/03 03:00:42;;;;;;;70.65;33.28;;;;;;;;;;4960117;28;20031;-74
2022/12/03 03:03:08;;;;;;;72.80;32.97;;;;;;;;;;4972011;28;20078;-77
2022/12/03 03:05:36;;;;;;;73.75;33.47;;;;;;;;;;4961924;28;20023;-75
2022/12/03 03:08:02;;;;;;;70.15;32.53;;;;;;;;;;4975115;28;20023;-75
2022/12/03 03:10:32;;;;;;;69.30;32.30;;;;;;;;;;4962985;28;20027;-71
2022/12/03 03:12:58;;;;;;;70.20;32.35;;;;;;;;;;4971439;28;20061;-74
2022/12/03 03:15:25;;;;;;;72.60;32.53;;;;;;;;;;4960386;28;20065;-74
2022/12/03 03:17:51;;;;;;;69.57;32.35;;;;;;;;;;4968909;28;20042;-74
2022/12/03 03:20:17;;;;;;;70.60;33.30;;;;;;;;;;4961766;28;20023;-73
2022/12/03 03:22:43;;;;;;;70.30;32.85;;;;;;;;;;4970894;28;20439;-74
2022/12/03 03:25:10;;;;;;;66.82;32.05;;;;;;;;;;4959037;28;20027;-74
2022/12/03 03:27:36;;;;;;;71.63;32.85;;;;;;;;;;4968464;28;20019;-74
2022/12/03 03:30:03;;;;;;;67.03;31.27;;;;;;;;;;4965627;28;20058;-74
2022/12/03 03:32:29;;;;;;;69.55;32.65;;;;;;;;;;4961367;28;20031;-75
2022/12/03 03:34:55;;;;;;;70.43;32.85;;;;;;;;;;4971469;28;20042;-74
2022/12/03 03:37:22;;;;;;;68.72;33.03;;;;;;;;;;4959523;28;20101;-74
2022/12/03 03:39:48;;;;;;;66.90;33.22;;;;;;;;;;4966671;28;20031;-74
2022/12/03 03:42:14;;;;;;;69.25;33.65;;;;;;;;;;4966225;28;20059;-74
2022/12/03 03:44:40;;;;;;;65.30;31.65;;;;;;;;;;4960389;28;20053;-75
2022/12/03 03:47:06;;;;;;;69.38;32.60;;;;;;;;;;4971741;28;20455;-72
2022/12/03 03:49:33;;;;;;;72.75;32.92;;;;;;;;;;4974332;28;20401;-74
2022/12/03 03:51:59;;;;;;;72.88;32.15;;;;;;;;;;4966737;28;20053;-74
2022/12/03 03:54:25;;;;;;;69.55;34.58;;;;;;;;;;4969012;28;20496;-74
2022/12/03 03:56:51;;;;;;;65.93;32.70;;;;;;;;;;4958436;28;20405;-73
2022/12/03 03:59:17;;;;;;;71.78;33.20;;;;;;;;;;4973245;28;20375;-74
2022/12/03 04:01:44;;;;;;;70.35;32.70;;;;;;;;;;4964424;28;20274;-74
2022/12/03 04:04:20;;;;;;;69.28;33.00;;;;;;;;;;4970004;28;20098;-74
2022/12/03 04:06:47;;;;;;;69.32;31.45;;;;;;;;;;4978546;28;20034;-74
2022/12/03 04:09:13;;;;;;;67.07;32.08;;;;;;;;;;4966171;28;20031;-74
2022/12/03 04:14:24;;;;;;;66.95;32.90;;;;;;;;;;4975226;28;20267;-74
2022/12/03 04:16:50;;;;;;;66.00;30.92;;;;;;;;;;4965490;28;20074;-73
2022/12/03 04:19:16;;;;;;;66.53;31.20;;;;;;;;;;4964433;28;20424;-72
2022/12/03 04:24:26;;;;;;;65.78;30.73;;;;;;;;;;4971365;28;20062;-73
2022/12/03 04:29:38;;;;;;;66.38;30.40;;;;;;;;;;4967933;28;20081;-73
2022/12/03 04:37:33;;;;;;;60.08;30.10;;;;;;;;;;4968111;28;20038;-73
2022/12/03 04:39:59;;;;;;;58.38;28.42;;;;;;;;;;4961566;28;20035;-73
2022/12/03 04:42:25;;;;;;;56.88;29.38;;;;;;;;;;4957577;28;20027;-73
2022/12/03 04:44:51;;;;;;;64.07;32.38;;;;;;;;;;4968387;28;20114;-75
2022/12/03 04:47:18;;;;;;;56.08;28.85;;;;;;;;;;4955968;28;20062;-72
2022/12/03 04:49:46;;;;;;;59.50;28.52;;;;;;;;;;4962847;28;20031;-73
2022/12/03 04:52:12;;;;;;;56.17;29.35;;;;;;;;;;4962890;28;20042;-73
2022/12/03 04:54:39;;;;;;;58.00;27.48;;;;;;;;;;4956841;28;20035;-73
2022/12/03 04:57:05;;;;;;;60.40;27.80;;;;;;;;;;4968269;28;20027;-72
2022/12/03 04:59:32;;;;;;;53.55;27.90;;;;;;;;;;4959146;28;20046;-76
2022/12/03 05:01:58;;;;;;;55.78;27.90;;;;;;;;;;4963635;28;20081;-73
2022/12/03 05:04:24;;;;;;;52.38;27.88;;;;;;;;;;4964989;28;20027;-73
2022/12/03 05:06:50;;;;;;;53.88;28.50;;;;;;;;;;4955555;28;20126;-74
2022/12/03 05:09:16;;;;;;;56.97;27.38;;;;;;;;;;4968820;28;20459;-73
2022/12/03 05:11:42;;;;;;;60.83;28.55;;;;;;;;;;4959546;28;20030;-73
2022/12/03 05:14:09;;;;;;;59.05;28.85;;;;;;;;;;4962159;28;20035;-73
2022/12/03 05:16:35;;;;;;;60.17;27.77;;;;;;;;;;4964199;28;20425;-74
2022/12/03 05:19:01;;;;;;;60.17;30.25;;;;;;;;;;4968996;28;20460;-73
2022/12/03 05:21:28;;;;;;;58.53;28.90;;;;;;;;;;4958371;28;20057;-74
2022/12/03 05:23:54;;;;;;;58.05;29.17;;;;;;;;;;4962854;28;20426;-74
2022/12/03 05:26:19;;;;;;;56.67;28.58;;;;;;;;;;4964098;28;20035;-73
2022/12/03 05:28:46;;;;;;;53.25;26.75;;;;;;;;;;4956671;28;20068;-73
2022/12/03 05:31:12;;;;;;;52.30;27.25;;;;;;;;;;4969022;28;20065;-73
2022/12/03 05:33:38;;;;;;;59.30;29.67;;;;;;;;;;4960054;28;20039;-72
2022/12/03 05:36:04;;;;;;;58.90;28.27;;;;;;;;;;4962787;28;20042;-73
2022/12/03 05:38:30;;;;;;;55.35;25.55;;;;;;;;;;4966512;28;20476;-74
2022/12/03 05:40:56;;;;;;;52.97;26.90;;;;;;;;;;4956494;28;20474;-74
2022/12/03 05:43:22;;;;;;;57.70;27.90;;;;;;;;;;4968104;28;20024;-71
2022/12/03 05:45:48;;;;;;;55.97;26.70;;;;;;;;;;4960887;28;20046;-74
2022/12/03 05:48:15;;;;;;;57.92;28.13;;;;;;;;;;4959500;28;20046;-74
2022/12/03 05:50:45;;;;;;;55.13;26.50;;;;;;;;;;4968139;28;20077;-73
2022/12/03 05:53:11;;;;;;;52.40;27.42;;;;;;;;;;4956716;28;20050;-74
2022/12/03 05:55:37;;;;;;;54.75;27.08;;;;;;;;;;4966050;28;20038;-73
2022/12/03 05:58:03;;;;;;;54.47;28.73;;;;;;;;;;4962802;28;20026;-73
2022/12/03 06:00:31;;;;;;;50.10;27.13;;;;;;;;;;4958389;28;20063;-73
2022/12/03 06:02:57;;;;;;;51.38;26.63;;;;;;;;;;4969408;28;20031;-74
2022/12/03 06:05:23;;;;;;;52.75;26.90;;;;;;;;;;4959882;28;20026;-74
2022/12/03 06:07:50;;;;;;;54.50;27.55;;;;;;;;;;4966509;28;20031;-74
2022/12/03 06:10:18;;;;;;;57.47;27.67;;;;;;;;;;4967395;28;20031;-74
2022/12/03 06:12:44;;;;;;;48.50;25.60;;;;;;;;;;4960737;28;20106;-74
2022/12/03 06:15:11;;;;;;;50.20;26.33;;;;;;;;;;4972945;28;20023;-74
2022/12/03 06:17:37;;;;;;;54.47;26.25;;;;;;;;;;4956414;29;20031;-74
2022/12/03 06:20:03;;;;;;;54.58;28.08;;;;;;;;;;4966488;28;20035;-73
2022/12/03 06:22:29;;;;;;;53.58;26.45;;;;;;;;;;4962643;28;20042;-74
2022/12/03 06:24:55;;;;;;;57.08;28.33;;;;;;;;;;4972636;28;20023;-74
2022/12/03 06:27:21;;;;;;;51.20;25.80;;;;;;;;;;4960429;28;20030;-75
2022/12/03 06:29:47;;;;;;;59.95;28.77;;;;;;;;;;4966658;28;20031;-73
2022/12/03 06:32:13;;;;;;;59.72;29.48;;;;;;;;;;4967917;28;20038;-74
2022/12/03 06:34:39;;;;;;;55.33;26.95;;;;;;;;;;4960827;28;20473;-73
2022/12/03 06:37:05;;;;;;;64.63;29.50;;;;;;;;;;4972728;28;20101;-73
2022/12/03 06:39:31;;;;;;;62.13;29.85;;;;;;;;;;4961933;28;20035;-73
2022/12/03 06:41:57;;;;;;;59.38;29.60;;;;;;;;;;4966216;28;20039;-74
2022/12/03 06:44:23;;;;;;;59.33;29.52;;;;;;;;;;4968717;28;20437;-74
2022/12/03 06:46:49;;;;;;;58.55;29.52;;;;;;;;;;4959633;28;20035;-74
2022/12/03 06:49:16;;;;;;;59.33;29.25;;;;;;;;;;4971691;28;20363;-74
2022/12/03 06:51:41;;;;;;;62.47;29.90;;;;;;;;;;4963054;28;20485;-74
2022/12/03 06:54:08;;;;;;;62.47;28.58;;;;;;;;;;4964763;28;20053;-74
2022/12/03 06:56:34;;;;;;;63.90;29.92;;;;;;;;;;4969745;28;20027;-74
2022/12/03 06:59:00;;;;;;;61.80;29.80;;;;;;;;;;4958677;28;20081;-75
2022/12/03 07:01:29;;;;;;;60.80;28.77;;;;;;;;;;4970322;28;20081;-75
2022/12/03 07:03:55;;;;;;;59.85;29.35;;;;;;;;;;4963617;28;20035;-74
2022/12/03 07:06:21;;;;;;;59.42;29.40;;;;;;;;;;4962589;28;20538;-72
2022/12/03 07:08:47;;;;;;;59.67;28.95;;;;;;;;;;4971208;28;20077;-74
2022/12/03 07:11:31;;;;;;;56.67;29.00;;;;;;;;;;4957622;28;20031;-73
2022/12/03 07:13:59;;;;;;;60.00;27.40;;;;;;;;;;4965884;28;20538;-75
2022/12/03 07:16:25;;;;;;;58.85;29.05;;;;;;;;;;4966558;28;20031;-74
2022/12/03 07:18:51;;;;;;;58.83;28.80;;;;;;;;;;4970984;28;20031;-75
2022/12/03 07:21:17;;;;;;;52.60;28.25;;;;;;;;;;4959344;28;20027;-75
2022/12/03 07:23:49;;;;;;;57.63;27.65;;;;;;;;;;4968151;28;20027;-75
2022/12/03 07:26:15;;;;;;;51.83;27.80;;;;;;;;;;4967182;28;20034;-76
2022/12/03 07:28:41;;;;;;;51.40;26.38;;;;;;;;;;4959786;28;20027;-74
2022/12/03 07:31:07;;;;;;;63.17;29.42;;;;;;;;;;4971313;28;20034;-72
2022/12/03 07:33:33;;;;;;;55.85;28.20;;;;;;;;;;4959837;28;20093;-75
2022/12/03 07:35:59;;;;;;;55.83;29.25;;;;;;;;;;4962014;28;20038;-74
2022/12/03 07:38:25;;;;;;;55.65;27.63;;;;;;;;;;4964342;28;20042;-74
2022/12/03 07:40:51;;;;;;;55.25;28.05;;;;;;;;;;4955115;28;20069;-74
2022/12/03 07:43:17;;;;;;;55.67;28.00;;;;;;;;;;4968800;28;20073;-76
2022/12/03 07:45:43;;;;;;;54.83;26.45;;;;;;;;;;4960615;28;20122;-74
2022/12/03 07:48:09;;;;;;;51.72;26.48;;;;;;;;;;4962388;28;20078;-75
2022/12/03 07:50:35;;;;;;;55.78;27.15;;;;;;;;;;4985995;28;20026;-75
2022/12/03 07:53:01;;;;;;;53.83;26.70;;;;;;;;;;4980270;28;20039;-73
2022/12/03 07:55:27;;;;;;;55.63;27.23;;;;;;;;;;4991846;28;20023;-75
2022/12/03 07:57:53;;;;;;;51.08;27.30;;;;;;;;;;4969951;28;20031;-74
2022/12/03 08:00:19;;;;;;;55.25;27.83;;;;;;;;;;4962754;28;20142;-75
2022/12/03 08:02:45;;;;;;;57.72;29.20;;;;;;;;;;4971157;28;20031;-74
2022/12/03 08:05:14;;;;;;;57.10;27.92;;;;;;;;;;4958409;28;20027;-74
2022/12/03 08:07:43;;;;;;;56.22;26.88;;;;;;;;;;4966743;28;20110;-74
2022/12/03 08:10:09;;;;;;;52.85;25.83;;;;;;;;;;4966079;28;20319;-74
2022/12/03 08:12:40;;;;;;;53.10;26.02;;;;;;;;;;4960129;28;20031;-74
2022/12/03 08:15:06;;;;;;;;;;;;;;;;;;4971451;28;20022;-73
2022/12/03 08:17:32;;;;;;;53.75;26.95;;;;;;;;;;4954230;28;19910;-74
2022/12/03 08:19:58;;;;;;;51.50;26.52;;;;;;;;;;4963980;28;20035;-73
2022/12/03 08:22:24;;;;;;;52.15;26.35;;;;;;;;;;4960010;28;20027;-74
2022/12/03 08:24:50;;;;;;;53.92;27.63;;;;;;;;;;4970925;28;20413;-74
2022/12/03 08:27:18;;;;;;;56.45;29.00;;;;;;;;;;4969498;28;20016;-74
2022/12/03 08:29:44;;;;;;;54.05;25.17;;;;;;;;;;4961917;28;20563;-73
2022/12/03 08:32:11;;;;;;;57.83;28.15;;;;;;;;;;4963142;28;20055;-76
2022/12/03 08:34:44;;;;;;;57.33;26.83;;;;;;;;;;4969308;28;20031;-74
2022/12/03 08:37:17;;;;;;;53.40;27.05;;;;;;;;;;4958239;28;20029;-74
2022/12/03 08:39:45;;;;;;;52.40;27.40;;;;;;;;;;4966853;28;20478;-74
2022/12/03 08:45:18;;;;;;;51.67;25.55;;;;;;;;;;4956864;28;20142;-74
2022/12/03 08:47:44;;;;;;;55.28;26.92;;;;;;;;;;4965795;28;20019;-73
2022/12/03 08:50:25;;;;;;;52.28;25.92;;;;;;;;;;4954516;28;20390;-74
2022/12/03 08:52:53;;;;;;;54.65;27.05;;;;;;;;;;4970002;28;20023;-74
2022/12/03 08:55:36;;;;;;;54.67;27.13;;;;;;;;;;4958036;28;20441;-75
2022/12/03 08:58:20;;;;;;;55.88;27.85;;;;;;;;;;4962912;28;20037;-74
2022/12/03 09:00:46;;;;;;;56.28;28.63;;;;;;;;;;4968894;28;20092;-73
2022/12/03 09:03:15;;;;;;;51.08;25.70;;;;;;;;;;4955196;28;20038;-72
2022/12/03 09:05:41;;;;;;;56.67;28.10;;;;;;;;;;4966046;28;20031;-74
2022/12/03 09:08:07;;;;;;;53.13;27.50;;;;;;;;;;4964113;28;20489;-74
2022/12/03 09:10:33;;;;;;;54.30;28.25;;;;;;;;;;4960303;28;20028;-74
2022/12/03 09:12:59;;;;;;;53.47;27.65;;;;;;;;;;4969652;28;20031;-76
2022/12/03 09:15:25;;;;;;;58.10;28.30;;;;;;;;;;4959055;28;20570;-77
2022/12/03 09:17:51;;;;;;;56.63;27.02;;;;;;;;;;4967906;28;20095;-77
2022/12/03 09:20:17;;;;;;;58.42;29.85;;;;;;;;;;4973385;28;20113;-77
2022/12/03 09:22:43;;;;;;;58.15;29.60;;;;;;;;;;4958106;28;20500;-76
2022/12/03 09:25:09;;;;;;;53.10;28.08;;;;;;;;;;4969809;28;20055;-76
2022/12/03 09:27:35;;;;;;;56.85;29.45;;;;;;;;;;4961169;28;20453;-76
2022/12/03 09:30:01;;;;;;;65.78;29.88;;;;;;;;;;4964123;28;20027;-76
2022/12/03 09:32:27;;;;;;;52.60;27.10;;;;;;;;;;4967341;28;20031;-75
2022/12/03 09:34:54;;;;;;;55.67;27.83;;;;;;;;;;4956995;28;20051;-76
2022/12/03 09:37:21;;;;;;;58.95;28.55;;;;;;;;;;4968761;28;20023;-76
2022/12/03 09:39:47;;;;;;;58.28;29.08;;;;;;;;;;4962973;28;20035;-76
2022/12/03 09:42:39;;;;;;;54.03;28.88;;;;;;;;;;4965935;28;20082;-77
2022/12/03 09:45:11;;;;;;;53.78;26.92;;;;;;;;;;4974828;28;20478;-78
2022/12/03 09:47:39;;;;;;;49.65;27.20;;;;;;;;;;4964118;28;20465;-78
2022/12/03 09:50:08;;;;;;;55.90;28.08;;;;;;;;;;4966409;28;20051;-74
2022/12/03 09:52:34;;;;;;;58.20;29.58;;;;;;;;;;4971409;28;20149;-76
2022/12/03 09:55:03;;;;;;;60.75;28.83;;;;;;;;;;4975152;28;20509;-74
2022/12/03 09:57:30;;;;;;;58.47;29.27;;;;;;;;;;4962329;28;20062;-76
2022/12/03 10:00:00;;;;;;;62.38;29.17;;;;;;;;;;4975221;28;20617;-73
2022/12/03 10:02:30;;;;;;;56.45;27.88;;;;;;;;;;4962639;28;20058;-75
2022/12/03 10:04:56;;;;;;;54.13;27.50;;;;;;;;;;4973437;28;20019;-71
2022/12/03 10:07:24;;;;;;;58.72;28.10;;;;;;;;;;4960110;28;20059;-75
2022/12/03 10:09:55;;;;;;;55.20;29.33;;;;;;;;;;4968498;28;20106;-76
2022/12/03 10:12:24;;;;;;;54.75;28.20;;;;;;;;;;4967398;28;20023;-75
2022/12/03 10:14:54;;;;;;;52.58;26.20;;;;;;;;;;4959951;28;20043;-74
2022/12/03 10:17:25;;;;;;;55.38;27.40;;;;;;;;;;4969533;28;20014;-75
2022/12/03 10:19:52;;;;;;;54.03;28.58;;;;;;;;;;4967507;28;20458;-74
2022/12/03 10:22:20;;;;;;;57.80;29.40;;;;;;;;;;4968363;28;20031;-75
2022/12/03 10:25:03;;;;;;;56.83;27.77;;;;;;;;;;4959340;28;20051;-75
2022/12/03 10:27:32;;;;;;;60.17;30.92;;;;;;;;;;4948401;28;20394;-77
2022/12/03 10:29:59;;;;;;;61.95;30.25;;;;;;;;;;4965766;28;20035;-75
2022/12/03 10:32:44;;;;;;;57.45;29.98;;;;;;;;;;4967470;28;20050;-78
2022/12/03 10:35:25;;;;;;;;;;;;;;;;;;;;;
2022/12/03 10:37:59;;;;;;;57.53;28.45;;;;;;;;;;4965035;28;20035;-74
2022/12/03 10:40:30;;;;;;;57.38;29.60;;;;;;;;;;4968137;28;20038;-75
2022/12/03 10:43:14;;;;;;;67.32;31.58;;;;;;;;;;4958796;28;20027;-75
2022/12/03 10:45:40;;;;;;;58.53;29.38;;;;;;;;;;4966940;28;20034;-75
2022/12/03 10:48:14;;;;;;;64.18;30.63;;;;;;;;;;4971672;22;20101;-75
2022/12/03 10:50:48;;;;;;;59.35;29.48;;;;;;;;;;4957638;28;20609;-76
2022/12/03 10:53:14;;;;;;;59.08;28.75;;;;;;;;;;4973970;28;20440;-72
2022/12/03 10:55:42;;;;;;;63.30;31.10;;;;;;;;;;4955881;28;20532;-75
2022/12/03 10:58:17;;;;;;;58.95;29.63;;;;;;;;;;4961917;28;20088;-74
2022/12/03 11:00:43;;;;;;;61.58;30.90;;;;;;;;;;4974598;28;20030;-76
2022/12/03 11:03:16;;;;;;;55.90;28.77;;;;;;;;;;4975625;28;20105;-75
2022/12/03 11:05:42;;;;;;;59.80;30.05;;;;;;;;;;4993559;28;20027;-75
2022/12/03 11:08:14;;;;;;;54.90;28.52;;;;;;;;;;4992823;28;20030;-72
2022/12/03 11:10:43;;;;;;;58.35;30.67;;;;;;;;;;4977633;28;20029;-75
2022/12/03 11:13:28;;;;;;;59.05;28.65;;;;;;;;;;4977887;28;20022;-75
2022/12/03 11:15:54;;;;;;;56.40;29.05;;;;;;;;;;4995097;28;20125;-75
2022/12/03 11:18:36;;;;;;;56.88;28.33;;;;;;;;;;4972052;28;20042;-75
2022/12/03 11:21:02;;;;;;;56.60;27.92;;;;;;;;;;4977185;28;20445;-74
2022/12/03 11:23:46;;;;;;;52.05;27.45;;;;;;;;;;4994140;28;20018;-75
2022/12/03 11:26:12;;;;;;;57.25;29.15;;;;;;;;;;4977373;28;20518;-74
2022/12/03 11:28:51;;;;;;;60.10;29.08;;;;;;;;;;4994287;28;20031;-75
2022/12/03 11:31:36;;;;;;;58.55;29.05;;;;;;;;;;4962028;28;20053;-75
2022/12/03 11:34:14;;;;;;;59.75;29.73;;;;;;;;;;4980512;28;20054;-75
2022/12/03 11:37:00;;;;;;;55.63;28.00;;;;;;;;;;4977952;28;20448;-75
2022/12/03 11:39:46;;;;;;;56.75;29.30;;;;;;;;;;4980044;28;20117;-75
2022/12/03 11:42:24;;;;;;;55.50;28.85;;;;;;;;;;4978022;28;20022;-76
2022/12/03 11:45:02;;;;;;;54.05;27.98;;;;;;;;;;4996883;28;20165;-75
2022/12/03 11:47:30;;;;;;;58.60;27.80;;;;;;;;;;4996364;28;20034;-75
2022/12/03 11:49:57;;;;;;;53.50;28.20;;;;;;;;;;4997639;28;20488;-74
2022/12/03 11:52:28;;;;;;;56.67;28.80;;;;;;;;;;4980839;28;20045;-74
2022/12/03 11:54:57;;;;;;;53.78;28.27;;;;;;;;;;4997956;28;20034;-76
2022/12/03 11:57:36;;;;;;;57.47;28.48;;;;;;;;;;4997862;28;20350;-75
2022/12/03 12:00:05;;;;;;;57.35;28.55;;;;;;;;;;5000388;28;20030;-75
2022/12/03 12:02:32;;;;;;;52.78;26.83;;;;;;;;;;5004142;28;20034;-76
2022/12/03 12:05:13;;;;;;;55.25;29.63;;;;;;;;;;5003610;28;20030;-75
2022/12/03 12:07:40;;;;;;;52.40;28.45;;;;;;;;;;4984847;28;20030;-73
2022/12/03 12:10:07;;;;;;;54.67;30.77;;;;;;;;;;5002749;28;20109;-75
2022/12/03 12:12:41;;;;;;;62.67;30.63;;;;;;;;;;4981043;28;20030;-75
2022/12/03 12:15:26;;;;;;;58.80;30.88;;;;;;;;;;4994100;28;20077;-75
2022/12/03 12:17:52;;;;;;;50.33;27.50;;;;;;;;;;4993424;28;20030;-76
2022/12/03 12:20:26;;;;;;;57.08;29.60;;;;;;;;;;4976285;28;20113;-75
2022/12/03 12:22:53;;;;;;;55.45;29.63;;;;;;;;;;4975765;28;20050;-77
2022/12/03 12:25:40;;;;;;;55.90;29.73;;;;;;;;;;4975716;28;20048;-76
2022/12/03 12:28:06;;;;;;;55.88;29.15;;;;;;;;;;4991291;28;20025;-75
2022/12/03 12:30:32;;;;;;;56.22;29.60;;;;;;;;;;4991923;28;20081;-76
2022/12/03 12:33:10;;;;;;;58.03;29.70;;;;;;;;;;4975374;28;20504;-76
2022/12/03 12:35:38;;;;;;;56.75;28.95;;;;;;;;;;4975826;28;20050;-74
2022/12/03 12:38:09;;;;;;;58.00;28.88;;;;;;;;;;4975498;28;20512;-74
2022/12/03 12:40:37;;;;;;;56.90;29.95;;;;;;;;;;4993713;28;20026;-75
2022/12/03 12:43:22;;;;;;;58.45;31.23;;;;;;;;;;4993216;28;20031;-77
2022/12/03 12:45:48;;;;;;;54.85;30.42;;;;;;;;;;4975713;28;20113;-76
2022/12/03 12:48:14;;;;;;;53.50;29.63;;;;;;;;;;4976511;28;20026;-75
2022/12/03 12:51:01;;;;;;;57.38;30.08;;;;;;;;;;4948674;28;20408;-74
2022/12/03 12:53:33;;;;;;;53.83;30.55;;;;;;;;;;4994246;28;20022;-75
2022/12/03 12:56:07;;;;;;;59.13;31.00;;;;;;;;;;4975716;28;20023;-75
2022/12/03 12:58:40;;;;;;;60.15;30.92;;;;;;;;;;4975252;28;20037;-75
2022/12/03 13:01:10;;;;;;;60.13;31.58;;;;;;;;;;4976215;28;20508;-76
2022/12/03 13:03:38;;;;;;;58.47;30.83;;;;;;;;;;4979071;28;20121;-73
2022/12/03 13:06:11;;;;;;;61.03;32.53;;;;;;;;;;4996559;28;20073;-75
2022/12/03 13:08:39;;;;;;;58.88;31.58;;;;;;;;;;4978888;28;20042;-75
2022/12/03 13:11:26;;;;;;;59.63;30.45;;;;;;;;;;5010975;28;20030;-75
2022/12/03 13:13:52;;;;;;;62.70;32.25;;;;;;;;;;4997222;28;20011;-77
2022/12/03 13:16:28;;;;;;;62.35;31.92;;;;;;;;;;5016721;28;20018;-77
2022/12/03 13:18:54;;;;;;;59.85;32.53;;;;;;;;;;5001020;22;20054;-76
2022/12/03 13:21:21;;;;;;;61.65;31.85;;;;;;;;;;5008191;28;20484;-74
2022/12/03 13:23:56;;;;;;;61.05;31.63;;;;;;;;;;5000809;28;20021;-75
2022/12/03 13:26:25;;;;;;;59.33;31.08;;;;;;;;;;5000078;28;20050;-73
2022/12/03 13:28:52;;;;;;;60.60;29.95;;;;;;;;;;5009091;28;20101;-74
2022/12/03 13:31:21;;;;;;;62.05;31.48;;;;;;;;;;5014892;22;20033;-74
2022/12/03 13:33:47;;;;;;;60.35;31.13;;;;;;;;;;4970736;28;20061;-76
2022/12/03 13:36:15;;;;;;;56.17;29.17;;;;;;;;;;4953896;28;20114;-77
2022/12/03 13:39:00;;;;;;;51.33;27.90;;;;;;;;;;4969967;28;20034;-76
2022/12/03 13:44:19;;;;;;;52.55;28.77;;;;;;;;;;4972602;28;20058;-76
2022/12/03 13:46:46;;;;;;;57.97;29.23;;;;;;;;;;4955058;28;20038;-78
2022/12/03 13:49:17;;;;;;;57.95;30.10;;;;;;;;;;4970681;28;20481;-77
2022/12/03 13:51:46;;;;;;;55.92;29.27;;;;;;;;;;4972498;28;20027;-77
2022/12/03 14:00:21;;;;;;;52.47;28.35;;;;;;;;;;4979641;28;20033;-77
2022/12/03 14:02:47;;;;;;;54.70;28.88;;;;;;;;;;4988020;28;20525;-77
2022/12/03 14:05:16;;;;;;;54.40;30.45;;;;;;;;;;4955185;28;20023;-76
2022/12/03 14:07:42;;;;;;;57.88;30.55;;;;;;;;;;4962034;28;20026;-77
2022/12/03 14:10:13;;;;;;;62.95;32.67;;;;;;;;;;4963377;28;20062;-77
2022/12/03 14:12:42;;;;;;;63.13;31.33;;;;;;;;;;4969491;28;20085;-75
2022/12/03 14:15:12;;;;;;;60.00;31.45;;;;;;;;;;4958021;28;20027;-77
2022/12/03 14:17:39;;;;;;;61.70;31.25;;;;;;;;;;4986204;28;20397;-76
2022/12/03 14:20:06;;;;;;;58.20;30.80;;;;;;;;;;4963150;28;20038;-76
2022/12/03 14:22:38;;;;;;;55.72;30.77;;;;;;;;;;4954795;28;20496;-76
2022/12/03 14:25:16;;;;;;;61.78;31.58;;;;;;;;;;4970727;28;20026;-77
2022/12/03 14:27:45;;;;;;;56.65;29.30;;;;;;;;;;4965232;28;20026;-76
2022/12/03 14:30:11;;;;;;;65.40;33.72;;;;;;;;;;4966950;28;20409;-75
2022/12/03 14:32:40;;;;;;;59.55;29.65;;;;;;;;;;4958410;28;20114;-75
2022/12/03 14:35:10;;;;;;;60.40;32.40;;;;;;;;;;4974488;28;20076;-75
2022/12/03 14:37:41;;;;;;;74.50;34.67;;;;;;;;;;4981986;28;20034;-76
2022/12/03 14:40:17;;;;;;;59.58;29.05;;;;;;;;;;4966894;28;20548;-75
2022/12/03 14:42:49;;;;;;;57.78;31.33;;;;;;;;;;4973880;28;20443;-76
2022/12/03 14:45:19;;;;;;;54.35;27.70;;;;;;;;;;4963592;28;20025;-76
2022/12/03 14:47:51;;;;;;;54.38;27.02;;;;;;;;;;4987303;28;20076;-78
2022/12/03 14:50:35;;;;;;;55.65;27.75;;;;;;;;;;4958174;28;20544;-75
2022/12/03 14:53:09;;;;;;;55.13;28.58;;;;;;;;;;4991188;28;20034;-76
2022/12/03 14:55:35;;;;;;;46.35;27.00;;;;;;;;;;4957664;28;20114;-77